Time;durP1;ratioP1;P1;durP2;ratioP2;P2;SDS_P1;SDS_P2;PMS_P1;PMS_P2;Temp;Humidity;BMP_temperature;BMP_pressure;BME280_temperature;BME280_humidity;BME280_pressure;Samples;Min_cycle;Max_cycle;Signal;HPM_P1;HPM_P2
2022/10/22 00:00:21;;;;;;;;;;;19.10;61.20;;;;;;5092367;28;19914;-62
2022/10/22 00:02:47;;;;;;;;;;;19.10;61.40;;;;;;5092576;28;19962;-61
2022/10/22 00:05:12;;;;;;;;;;;19.10;61.50;;;;;;5087494;28;20308;-61
2022/10/22 00:07:38;;;;;;;;;;;19.00;61.20;;;;;;5075625;28;20276;-61
2022/10/22 00:10:04;;;;;;;;;;;19.10;61.50;;;;;;5095935;28;20275;-61
2022/10/22 00:12:29;;;;;;;;;;;19.10;61.30;;;;;;5096666;28;19915;-62
2022/10/22 00:14:54;;;;;;;;;;;19.10;61.50;;;;;;5096206;28;19920;-61
2022/10/22 00:17:20;;;;;;;;;;;19.10;61.30;;;;;;5096722;28;20006;-61
2022/10/22 00:19:45;;;;;;;;;;;19.10;61.60;;;;;;5078026;28;19915;-61
2022/10/22 00:22:11;;;;;;;;;;;19.10;61.50;;;;;;5078212;28;20363;-61
2022/10/22 00:24:36;;;;;;;;;;;19.10;61.50;;;;;;5095393;28;20286;-62
2022/10/22 00:27:02;;;;;;;;;;;19.10;61.30;;;;;;5096256;28;19912;-61
2022/10/22 00:29:27;;;;;;;;;;;19.10;61.50;;;;;;5078237;28;19914;-61
2022/10/22 00:31:53;;;;;;;;;;;19.00;61.20;;;;;;5078121;28;19915;-61
2022/10/22 00:34:20;;;;;;;;;;;19.10;61.40;;;;;;5095904;28;20027;-61
2022/10/22 00:36:45;;;;;;;;;;;19.10;61.40;;;;;;5096160;28;19987;-62
2022/10/22 00:39:12;;;;;;;;;;;19.10;61.60;;;;;;5095087;28;20474;-61
2022/10/22 00:41:37;;;;;;;;;;;19.10;61.50;;;;;;5096270;28;19908;-62
2022/10/22 00:44:04;;;;;;;;;;;19.10;61.50;;;;;;5095828;28;19919;-62
2022/10/22 00:46:29;;;;;;;;;;;19.10;61.70;;;;;;5095994;28;19908;-61
2022/10/22 00:48:55;;;;;;;;;;;19.10;61.70;;;;;;5095638;28;19916;-62
2022/10/22 00:51:21;;;;;;;;;;;19.10;61.70;;;;;;5077746;28;19998;-62
2022/10/22 00:53:47;;;;;;;;;;;19.10;61.70;;;;;;5077141;28;19952;-61
2022/10/22 00:56:13;;;;;;;;;;;19.10;61.80;;;;;;5076875;28;19916;-62
2022/10/22 00:58:40;;;;;;;;;;;19.10;61.70;;;;;;5075481;28;19919;-61
2022/10/22 01:01:06;;;;;;;;;;;19.10;61.50;;;;;;5057449;28;20026;-61
2022/10/22 01:03:32;;;;;;;;;;;19.10;61.50;;;;;;5075208;28;19930;-61
2022/10/22 01:05:58;;;;;;;;;;;19.00;61.50;;;;;;5074958;28;19947;-61
2022/10/22 01:08:42;;;;;;;;;;;19.10;61.50;;;;;;5064324;28;19934;-62
2022/10/22 01:11:12;;;;;;;;;;;19.10;61.40;;;;;;5094968;28;19908;-62
2022/10/22 01:13:47;;;;;;;;;;;19.10;61.40;;;;;;5077281;28;19916;-61
2022/10/22 01:16:17;;;;;;;;;;;19.00;61.10;;;;;;5095256;28;19920;-61
2022/10/22 01:18:58;;;;;;;;;;;19.10;61.30;;;;;;5076290;28;19934;-61
2022/10/22 01:21:31;;;;;;;;;;;19.10;61.30;;;;;;5095251;28;19931;-61
2022/10/22 01:24:12;;;;;;;;;;;19.10;61.10;;;;;;5094289;28;19908;-62
2022/10/22 01:26:44;;;;;;;;;;;19.10;61.10;;;;;;5073413;28;19955;-62
2022/10/22 01:29:14;;;;;;;;;;;19.10;61.10;;;;;;5074705;28;19909;-62
2022/10/22 01:31:44;;;;;;;;;;;19.10;61.10;;;;;;5057038;28;19909;-62
2022/10/22 01:34:10;;;;;;;;;;;19.10;61.10;;;;;;5056614;28;19916;-61
2022/10/22 01:36:36;;;;;;;;;;;19.10;61.10;;;;;;5074736;28;19912;-62
2022/10/22 01:39:01;;;;;;;;;;;19.10;61.10;;;;;;5067924;28;19918;-62
2022/10/22 01:41:27;;;;;;;;;;;19.10;61.00;;;;;;5076719;28;19958;-62
2022/10/22 01:43:52;;;;;;;;;;;19.10;61.00;;;;;;5094740;28;19912;-61
2022/10/22 01:46:18;;;;;;;;;;;19.10;61.10;;;;;;5094811;28;19970;-62
2022/10/22 01:48:43;;;;;;;;;;;19.10;61.10;;;;;;5094610;28;19908;-62
2022/10/22 01:51:15;;;;;;;;;;;19.10;61.10;;;;;;5094680;28;19943;-62
2022/10/22 01:53:53;;;;;;;;;;;19.10;61.20;;;;;;5094554;28;19957;-62
2022/10/22 01:56:18;;;;;;;;;;;19.10;61.20;;;;;;5076411;28;20289;-62
2022/10/22 01:58:47;;;;;;;;;;;19.10;61.30;;;;;;5076214;28;19995;-62
2022/10/22 02:01:16;;;;;;;;;;;19.10;61.10;;;;;;5094425;28;19965;-62
2022/10/22 02:04:00;;;;;;;;;;;19.10;61.00;;;;;;5094252;28;19908;-62
2022/10/22 02:06:26;;;;;;;;;;;19.10;61.10;;;;;;5079192;28;19923;-62
2022/10/22 02:08:51;;;;;;;;;;;19.10;61.10;;;;;;5084265;28;20018;-62
2022/10/22 02:11:17;;;;;;;;;;;19.10;61.00;;;;;;5075630;28;19912;-62
2022/10/22 02:13:43;;;;;;;;;;;19.10;61.20;;;;;;5094456;28;20319;-62
2022/10/22 02:16:11;;;;;;;;;;;19.10;60.90;;;;;;5075094;28;21930;-61
2022/10/22 02:18:37;;;;;;;;;;;19.10;61.00;;;;;;5076066;28;19916;-61
2022/10/22 02:21:02;;;;;;;;;;;19.20;61.00;;;;;;5059060;28;19961;-62
2022/10/22 02:23:28;;;;;;;;;;;19.10;60.90;;;;;;5075937;28;19915;-62
2022/10/22 02:26:00;;;;;;;;;;;19.20;61.00;;;;;;5093017;28;19908;-61
2022/10/22 02:28:40;;;;;;;;;;;19.20;60.90;;;;;;5075821;28;19908;-61
2022/10/22 02:31:09;;;;;;;;;;;19.20;60.90;;;;;;5075962;28;19908;-61
2022/10/22 02:33:36;;;;;;;;;;;19.20;60.80;;;;;;5075748;28;19908;-61
2022/10/22 02:36:01;;;;;;;;;;;19.20;60.80;;;;;;5075540;28;19969;-61
2022/10/22 02:38:27;;;;;;;;;;;19.20;60.80;;;;;;5094065;28;19908;-61
2022/10/22 02:40:52;;;;;;;;;;;19.20;60.80;;;;;;5074699;28;19912;-61
2022/10/22 02:43:18;;;;;;;;;;;19.20;60.90;;;;;;5093874;28;19908;-62
2022/10/22 02:45:43;;;;;;;;;;;19.20;60.90;;;;;;5075217;28;19908;-61
2022/10/22 02:48:09;;;;;;;;;;;19.20;61.00;;;;;;5093597;28;19918;-61
2022/10/22 02:50:34;;;;;;;;;;;19.20;61.00;;;;;;5075294;28;19916;-61
2022/10/22 02:53:00;;;;;;;;;;;19.20;61.00;;;;;;5093669;28;19908;-61
2022/10/22 02:55:25;;;;;;;;;;;19.20;61.00;;;;;;5079715;28;20264;-62
2022/10/22 02:57:50;;;;;;;;;;;19.20;60.90;;;;;;5073218;28;20314;-61
2022/10/22 03:00:16;;;;;;;;;;;19.20;61.00;;;;;;5072983;28;19908;-62
2022/10/22 03:02:41;;;;;;;;;;;19.20;61.00;;;;;;5073130;28;19916;-61
2022/10/22 03:05:07;;;;;;;;;;;19.20;61.00;;;;;;5072896;28;20413;-62
2022/10/22 03:07:33;;;;;;;;;;;19.10;61.00;;;;;;5072761;28;20399;-61
2022/10/22 03:09:58;;;;;;;;;;;19.10;61.10;;;;;;5091918;28;20283;-61
2022/10/22 03:12:24;;;;;;;;;;;19.10;61.10;;;;;;5075206;28;20057;-61
2022/10/22 03:14:49;;;;;;;;;;;19.10;60.90;;;;;;5074848;28;19915;-61
2022/10/22 03:17:15;;;;;;;;;;;19.20;61.20;;;;;;5093212;28;19911;-61
2022/10/22 03:19:41;;;;;;;;;;;19.10;61.30;;;;;;5093153;28;19930;-61
2022/10/22 03:22:07;;;;;;;;;;;19.10;61.10;;;;;;5093212;28;20260;-61
2022/10/22 03:24:33;;;;;;;;;;;19.10;61.30;;;;;;5092298;28;19957;-61
2022/10/22 03:26:58;;;;;;;;;;;19.10;61.20;;;;;;5086537;28;19918;-61
2022/10/22 03:29:24;;;;;;;;;;;19.10;61.20;;;;;;5072558;28;19960;-62
2022/10/22 03:31:50;;;;;;;;;;;19.10;61.00;;;;;;5072820;28;19908;-61
2022/10/22 03:34:16;;;;;;;;;;;19.10;61.10;;;;;;5054845;28;19999;-62
2022/10/22 03:36:41;;;;;;;;;;;19.10;61.30;;;;;;5054738;28;20023;-61
2022/10/22 03:39:07;;;;;;;;;;;19.10;61.50;;;;;;5084740;28;19916;-61
2022/10/22 03:41:32;;;;;;;;;;;19.10;61.50;;;;;;5077397;28;19918;-62
2022/10/22 03:43:59;;;;;;;;;;;19.00;61.50;;;;;;5099514;28;19908;-61
2022/10/22 03:46:24;;;;;;;;;;;19.00;61.50;;;;;;5081593;28;20014;-61
2022/10/22 03:48:50;;;;;;;;;;;19.00;61.60;;;;;;5099488;28;20343;-62
2022/10/22 03:51:15;;;;;;;;;;;19.00;61.50;;;;;;5099819;28;20567;-61
2022/10/22 03:53:41;;;;;;;;;;;19.00;61.60;;;;;;5099367;28;20004;-62
2022/10/22 03:56:07;;;;;;;;;;;19.00;61.40;;;;;;5098983;28;19962;-61
2022/10/22 03:58:32;;;;;;;;;;;19.10;61.50;;;;;;5099851;28;19909;-62
2022/10/22 04:01:02;;;;;;;;;;;19.00;61.30;;;;;;5099334;28;19915;-61
2022/10/22 04:03:28;;;;;;;;;;;19.10;61.40;;;;;;5099362;28;19914;-61
2022/10/22 04:05:53;;;;;;;;;;;19.10;61.40;;;;;;5080923;28;19916;-62
2022/10/22 04:08:19;;;;;;;;;;;19.10;61.30;;;;;;5081479;28;19908;-62
2022/10/22 04:10:49;;;;;;;;;;;19.10;61.20;;;;;;5098511;28;19908;-62
2022/10/22 04:13:14;;;;;;;;;;;19.10;61.10;;;;;;5099355;28;19966;-62
2022/10/22 04:15:40;;;;;;;;;;;19.10;61.10;;;;;;5098769;28;19948;-62
2022/10/22 04:18:05;;;;;;;;;;;19.20;61.10;;;;;;5079040;28;19916;-61
2022/10/22 04:20:31;;;;;;;;;;;19.10;61.10;;;;;;5078841;28;19913;-62
2022/10/22 04:22:56;;;;;;;;;;;19.10;61.10;;;;;;5079086;28;20019;-61
2022/10/22 04:25:22;;;;;;;;;;;19.10;61.10;;;;;;5059851;28;20294;-62
2022/10/22 04:27:47;;;;;;;;;;;19.20;61.10;;;;;;5078988;28;20288;-61
2022/10/22 04:30:12;;;;;;;;;;;19.20;61.10;;;;;;5078552;28;20011;-61
2022/10/22 04:32:38;;;;;;;;;;;19.20;61.00;;;;;;5078852;28;19909;-61
2022/10/22 04:35:03;;;;;;;;;;;19.20;61.00;;;;;;5078533;28;19919;-61
2022/10/22 04:37:29;;;;;;;;;;;19.20;60.80;;;;;;5061119;28;19908;-62
2022/10/22 04:39:54;;;;;;;;;;;19.20;60.80;;;;;;5097241;28;19955;-61
2022/10/22 04:42:20;;;;;;;;;;;19.20;60.80;;;;;;5099193;28;19961;-61
2022/10/22 04:44:45;;;;;;;;;;;19.20;60.70;;;;;;5098835;28;19916;-62
2022/10/22 04:47:11;;;;;;;;;;;19.20;60.70;;;;;;5099292;28;19914;-62
2022/10/22 04:49:36;;;;;;;;;;;19.30;60.80;;;;;;5098732;28;19954;-61
2022/10/22 04:52:02;;;;;;;;;;;19.20;60.80;;;;;;5099101;28;19908;-62
2022/10/22 04:54:27;;;;;;;;;;;19.20;60.70;;;;;;5088940;28;19936;-61
2022/10/22 04:56:52;;;;;;;;;;;19.20;60.80;;;;;;5057441;28;19917;-62
2022/10/22 04:59:18;;;;;;;;;;;19.20;60.80;;;;;;5057232;28;19909;-61
2022/10/22 05:01:43;;;;;;;;;;;19.20;60.80;;;;;;5075494;28;19913;-62
2022/10/22 05:04:13;;;;;;;;;;;19.20;60.80;;;;;;5075174;28;19908;-62
2022/10/22 05:06:38;;;;;;;;;;;19.20;60.80;;;;;;5075155;28;19916;-62
2022/10/22 05:09:05;;;;;;;;;;;19.20;60.80;;;;;;5086511;28;19919;-61
2022/10/22 05:11:34;;;;;;;;;;;19.20;60.80;;;;;;5095486;28;19908;-61
2022/10/22 05:14:00;;;;;;;;;;;19.20;61.00;;;;;;5095201;28;19908;-61
2022/10/22 05:16:28;;;;;;;;;;;19.10;60.90;;;;;;5095303;28;20007;-62
2022/10/22 05:18:54;;;;;;;;;;;19.10;60.90;;;;;;5077093;28;19908;-62
2022/10/22 05:21:20;;;;;;;;;;;19.10;61.00;;;;;;5077272;28;19909;-62
2022/10/22 05:23:47;;;;;;;;;;;19.10;61.00;;;;;;5094822;28;19915;-61
2022/10/22 05:26:12;;;;;;;;;;;19.10;61.00;;;;;;5059937;28;20289;-62
2022/10/22 05:28:38;;;;;;;;;;;19.10;61.10;;;;;;5095174;28;19908;-62
2022/10/22 05:31:03;;;;;;;;;;;19.10;61.10;;;;;;5094975;28;19912;-62
2022/10/22 05:33:29;;;;;;;;;;;19.10;61.20;;;;;;5095202;28;20347;-62
2022/10/22 05:35:54;;;;;;;;;;;19.10;61.10;;;;;;5094727;28;19943;-62
2022/10/22 05:38:20;;;;;;;;;;;19.10;61.10;;;;;;5094899;28;19958;-61
2022/10/22 05:40:45;;;;;;;;;;;19.10;61.10;;;;;;5093938;28;20474;-61
2022/10/22 05:43:11;;;;;;;;;;;19.10;61.00;;;;;;5094522;28;20267;-62
2022/10/22 05:45:37;;;;;;;;;;;19.10;60.90;;;;;;5056476;28;19912;-61
2022/10/22 05:48:02;;;;;;;;;;;19.10;60.90;;;;;;5056589;28;19966;-61
2022/10/22 05:50:28;;;;;;;;;;;19.10;60.90;;;;;;5056322;28;20382;-62
2022/10/22 05:52:53;;;;;;;;;;;19.10;60.90;;;;;;5074552;28;19920;-61
2022/10/22 05:55:19;;;;;;;;;;;19.10;61.70;;;;;;5055303;28;19912;-62
2022/10/22 05:57:44;;;;;;;;;;;19.20;61.00;;;;;;5074306;28;19909;-62
2022/10/22 06:00:10;;;;;;;;;;;19.10;60.80;;;;;;5074309;28;19908;-61
2022/10/22 06:02:35;;;;;;;;;;;19.10;61.00;;;;;;5074410;28;20003;-61
2022/10/22 06:05:01;;;;;;;;;;;19.10;60.90;;;;;;5073673;28;20264;-62
2022/10/22 06:07:26;;;;;;;;;;;19.10;60.90;;;;;;5074064;28;19917;-62
2022/10/22 06:09:52;;;;;;;;;;;19.10;60.90;;;;;;5092198;28;19908;-61
2022/10/22 06:12:18;;;;;;;;;;;19.10;61.00;;;;;;5094514;28;19908;-61
2022/10/22 06:14:43;;;;;;;;;;;19.10;61.10;;;;;;5075879;28;20291;-61
2022/10/22 06:17:09;;;;;;;;;;;19.10;61.00;;;;;;5081215;28;19939;-61
2022/10/22 06:19:35;;;;;;;;;;;19.10;61.00;;;;;;5055709;28;19916;-61
2022/10/22 06:22:00;;;;;;;;;;;19.10;61.10;;;;;;5056332;28;20374;-61
2022/10/22 06:24:26;;;;;;;;;;;19.10;61.00;;;;;;5073128;28;20276;-62
2022/10/22 06:26:51;;;;;;;;;;;19.10;61.00;;;;;;5073803;28;19912;-61
2022/10/22 06:29:17;;;;;;;;;;;19.10;61.00;;;;;;5073593;28;19916;-61
2022/10/22 06:31:42;;;;;;;;;;;19.10;61.00;;;;;;5073676;28;19908;-61
2022/10/22 06:34:09;;;;;;;;;;;19.10;60.90;;;;;;5073423;28;19915;-62
2022/10/22 06:36:35;;;;;;;;;;;19.10;61.00;;;;;;5072163;28;19913;-61
2022/10/22 06:39:00;;;;;;;;;;;19.10;60.90;;;;;;5084443;28;19915;-62
2022/10/22 06:41:26;;;;;;;;;;;19.20;60.80;;;;;;5075700;28;19908;-62
2022/10/22 06:43:51;;;;;;;;;;;19.20;60.70;;;;;;5093695;28;19986;-62
2022/10/22 06:46:17;;;;;;;;;;;19.20;60.80;;;;;;5075476;28;19935;-62
2022/10/22 06:48:46;;;;;;;;;;;19.20;60.80;;;;;;5075254;28;19912;-62
2022/10/22 06:51:12;;;;;;;;;;;19.20;60.70;;;;;;5093547;28;19916;-62
2022/10/22 06:53:38;;;;;;;;;;;19.20;60.70;;;;;;5093555;28;20287;-62
2022/10/22 06:56:04;;;;;;;;;;;19.20;60.70;;;;;;5092452;28;19916;-61
2022/10/22 06:58:30;;;;;;;;;;;19.20;60.80;;;;;;5075455;28;19969;-62
2022/10/22 07:01:02;;;;;;;;;;;19.20;60.70;;;;;;5093310;28;20382;-61
2022/10/22 07:03:27;;;;;;;;;;;19.20;60.70;;;;;;5075296;28;19999;-61
2022/10/22 07:05:53;;;;;;;;;;;19.20;60.70;;;;;;5084905;28;20373;-61
2022/10/22 07:08:18;;;;;;;;;;;19.20;60.70;;;;;;5079093;28;20363;-61
2022/10/22 07:10:44;;;;;;;;;;;19.20;60.80;;;;;;5092330;28;20260;-61
2022/10/22 07:13:09;;;;;;;;;;;19.20;60.80;;;;;;5093201;28;20382;-61
2022/10/22 07:15:35;;;;;;;;;;;19.20;60.80;;;;;;5092508;28;20470;-62
2022/10/22 07:18:03;;;;;;;;;;;19.20;60.80;;;;;;5093002;28;19908;-63
2022/10/22 07:20:28;;;;;;;;;;;19.20;60.70;;;;;;5092922;28;19912;-62
2022/10/22 07:22:54;;;;;;;;;;;19.20;60.80;;;;;;5093284;28;19908;-62
2022/10/22 07:25:19;;;;;;;;;;;19.20;60.90;;;;;;5057239;28;19908;-62
2022/10/22 07:27:45;;;;;;;;;;;19.10;60.90;;;;;;5092923;28;20367;-62
2022/10/22 07:30:10;;;;;;;;;;;19.10;61.60;;;;;;5092866;28;20343;-62
2022/10/22 07:32:36;;;;;;;;;;;19.10;60.90;;;;;;5093252;28;20351;-62
2022/10/22 07:35:01;;;;;;;;;;;19.10;60.90;;;;;;5092689;28;19931;-62
2022/10/22 07:37:27;;;;;;;;;;;19.10;60.80;;;;;;5092898;28;19962;-62
2022/10/22 07:39:52;;;;;;;;;;;19.10;60.80;;;;;;5091757;28;19976;-64
2022/10/22 07:42:18;;;;;;;;;;;19.10;60.90;;;;;;5092985;28;19908;-62
2022/10/22 07:44:43;;;;;;;;;;;19.20;60.80;;;;;;5079419;28;20306;-62
2022/10/22 07:47:08;;;;;;;;;;;19.10;60.70;;;;;;5072679;28;20307;-62
2022/10/22 07:49:34;;;;;;;;;;;19.10;60.70;;;;;;5054329;28;19991;-62
2022/10/22 07:51:59;;;;;;;;;;;19.20;60.90;;;;;;5054512;28;19913;-62
2022/10/22 07:54:25;;;;;;;;;;;19.20;60.80;;;;;;5071551;28;19995;-62
2022/10/22 07:56:50;;;;;;;;;;;19.20;60.70;;;;;;5072858;28;19990;-62
2022/10/22 07:59:16;;;;;;;;;;;19.20;60.80;;;;;;5072351;28;19912;-62
2022/10/22 08:01:41;;;;;;;;;;;19.20;60.70;;;;;;5054583;28;19984;-62
2022/10/22 08:04:08;;;;;;;;;;;19.20;60.70;;;;;;5072136;28;19961;-63
2022/10/22 08:06:34;;;;;;;;;;;19.30;60.70;;;;;;5054562;28;20011;-62
2022/10/22 08:08:59;;;;;;;;;;;19.30;60.70;;;;;;5065663;28;20002;-62
2022/10/22 08:11:25;;;;;;;;;;;19.30;60.70;;;;;;5092709;28;19909;-62
2022/10/22 08:13:51;;;;;;;;;;;19.30;60.70;;;;;;5092476;28;19931;-62
2022/10/22 08:16:16;;;;;;;;;;;19.30;60.70;;;;;;5092298;28;19916;-62
2022/10/22 08:18:42;;;;;;;;;;;19.30;60.60;;;;;;5092577;28;19908;-62
2022/10/22 08:21:07;;;;;;;;;;;19.30;60.70;;;;;;5092621;28;20372;-62
2022/10/22 08:23:33;;;;;;;;;;;19.20;60.70;;;;;;5092367;28;20003;-62
2022/10/22 08:25:58;;;;;;;;;;;19.20;60.80;;;;;;5091454;28;19908;-62
2022/10/22 08:28:24;;;;;;;;;;;19.20;61.00;;;;;;5094630;28;19952;-62
2022/10/22 08:30:49;;;;;;;;;;;19.20;61.10;;;;;;5096089;28;19912;-62
2022/10/22 08:33:15;;;;;;;;;;;19.10;61.10;;;;;;5071011;28;19919;-62
2022/10/22 08:35:40;;;;;;;;;;;19.10;61.40;;;;;;5075536;28;19916;-62
2022/10/22 08:38:06;;;;;;;;;;;19.10;61.40;;;;;;5080545;28;20340;-62
2022/10/22 08:40:32;;;;;;;;;;;19.10;61.30;;;;;;5095267;28;20260;-62
2022/10/22 08:43:11;;;;;;;;;;;19.10;61.40;;;;;;5078059;28;19908;-62
2022/10/22 08:45:48;;;;;;;;;;;19.10;61.40;;;;;;5095847;28;19909;-62
2022/10/22 08:48:32;;;;;;;;;;;19.10;61.60;;;;;;5096035;28;19912;-62
2022/10/22 08:50:58;;;;;;;;;;;19.10;61.70;;;;;;5095915;28;19998;-62
2022/10/22 08:53:36;;;;;;;;;;;19.10;61.70;;;;;;5077966;28;19950;-62
2022/10/22 08:56:01;;;;;;;;;;;19.00;61.70;;;;;;5077116;28;19912;-62
2022/10/22 08:58:33;;;;;;;;;;;19.00;61.90;;;;;;5095689;28;19908;-62
2022/10/22 09:00:59;;;;;;;;;;;19.00;62.00;;;;;;5095639;28;19922;-62
2022/10/22 09:03:30;;;;;;;;;;;19.00;62.10;;;;;;5077612;28;20282;-62
2022/10/22 09:06:17;;;;;;;;;;;19.00;62.30;;;;;;5068799;28;19917;-62
2022/10/22 09:08:43;;;;;;;;;;;19.00;62.20;;;;;;5084558;28;20367;-63
2022/10/22 09:11:11;;;;;;;;;;;19.00;62.20;;;;;;5094555;28;19908;-62
2022/10/22 09:13:37;;;;;;;;;;;19.00;62.20;;;;;;5095412;28;19916;-62
2022/10/22 09:16:14;;;;;;;;;;;19.00;62.30;;;;;;5077149;28;19942;-62
2022/10/22 09:18:46;;;;;;;;;;;19.00;62.40;;;;;;5095493;28;19914;-62
2022/10/22 09:21:14;;;;;;;;;;;19.00;62.30;;;;;;5095365;28;20337;-62
2022/10/22 09:23:48;;;;;;;;;;;19.00;62.30;;;;;;5095566;28;20367;-62
2022/10/22 09:26:14;;;;;;;;;;;19.10;62.60;;;;;;5076815;28;19928;-62
2022/10/22 09:28:40;;;;;;;;;;;19.00;62.50;;;;;;5095157;28;19961;-62
2022/10/22 09:31:09;;;;;;;;;;;19.10;62.50;;;;;;5095032;28;19909;-62
2022/10/22 09:33:35;;;;;;;;;;;19.10;62.50;;;;;;5095130;28;20291;-62
2022/10/22 09:36:06;;;;;;;;;;;19.10;62.50;;;;;;5094833;28;19919;-62
2022/10/22 09:38:32;;;;;;;;;;;19.10;62.40;;;;;;5076917;28;19908;-62
2022/10/22 09:40:58;;;;;;;;;;;19.10;62.50;;;;;;5075552;28;19954;-62
2022/10/22 09:43:24;;;;;;;;;;;19.20;62.50;;;;;;5094966;28;19919;-62
2022/10/22 09:45:57;;;;;;;;;;;19.10;62.40;;;;;;5094774;28;19908;-62
2022/10/22 09:48:29;;;;;;;;;;;19.20;62.30;;;;;;5076889;28;20398;-62
2022/10/22 09:51:09;;;;;;;;;;;19.20;62.40;;;;;;5077162;28;19994;-62
2022/10/22 09:53:36;;;;;;;;;;;19.20;62.40;;;;;;5094873;28;19916;-62
2022/10/22 09:56:06;;;;;;;;;;;19.20;62.50;;;;;;5079794;28;19912;-62
2022/10/22 09:58:40;;;;;;;;;;;19.20;62.60;;;;;;5074252;28;19915;-62
2022/10/22 10:01:05;;;;;;;;;;;19.20;62.50;;;;;;5074202;28;19914;-63
2022/10/22 10:03:31;;;;;;;;;;;19.20;62.50;;;;;;5074487;28;19908;-62
2022/10/22 10:05:57;;;;;;;;;;;19.20;62.50;;;;;;5073900;28;19917;-62
2022/10/22 10:08:23;;;;;;;;;;;19.30;62.60;;;;;;5080923;28;19962;-62
2022/10/22 10:10:52;;;;;;;;;;;19.20;62.30;;;;;;5093487;28;19908;-62
2022/10/22 10:13:24;;;;;;;;;;;19.20;63.20;;;;;;5076229;28;19944;-62
2022/10/22 10:16:02;;;;;;;;;;;19.30;62.60;;;;;;5094067;28;19923;-62
2022/10/22 10:18:33;;;;;;;;;;;19.30;62.60;;;;;;5094228;28;19909;-62
2022/10/22 10:21:09;;;;;;;;;;;19.30;62.50;;;;;;5076299;28;19908;-62
2022/10/22 10:23:47;;;;;;;;;;;19.30;62.40;;;;;;5076235;28;20333;-62
2022/10/22 10:26:14;;;;;;;;;;;19.30;62.40;;;;;;5093413;28;20393;-62
2022/10/22 10:28:39;;;;;;;;;;;19.40;62.50;;;;;;5075860;28;19978;-62
2022/10/22 10:31:15;;;;;;;;;;;19.40;62.50;;;;;;5093904;28;20375;-62
2022/10/22 10:34:03;;;;;;;;;;;19.40;62.40;;;;;;5065149;28;19908;-62
2022/10/22 10:36:47;;;;;;;;;;;19.40;62.30;;;;;;5073571;28;19912;-62
2022/10/22 10:39:17;;;;;;;;;;;19.40;62.40;;;;;;5086251;28;19915;-63
2022/10/22 10:41:46;;;;;;;;;;;19.40;62.50;;;;;;5075852;28;19908;-62
2022/10/22 10:44:17;;;;;;;;;;;19.40;62.40;;;;;;5093585;28;19908;-62
2022/10/22 10:47:01;;;;;;;;;;;19.50;62.60;;;;;;5093788;28;20007;-62
2022/10/22 10:49:28;;;;;;;;;;;19.50;62.30;;;;;;5093374;28;19908;-62
2022/10/22 10:52:03;;;;;;;;;;;19.50;62.30;;;;;;5074752;28;20006;-62
2022/10/22 10:54:48;;;;;;;;;;;19.50;62.30;;;;;;5074539;28;20360;-62
2022/10/22 10:57:32;;;;;;;;;;;19.60;62.40;;;;;;5093563;28;19912;-62
2022/10/22 11:00:09;;;;;;;;;;;19.60;62.50;;;;;;5093361;28;19935;-62
2022/10/22 11:02:54;;;;;;;;;;;19.60;62.50;;;;;;5093846;28;19908;-62
2022/10/22 11:05:27;;;;;;;;;;;19.60;62.60;;;;;;5089589;28;19995;-62
2022/10/22 11:07:54;;;;;;;;;;;19.60;62.60;;;;;;5057740;28;20402;-62
2022/10/22 11:10:31;;;;;;;;;;;19.60;62.60;;;;;;5074200;28;19908;-62
2022/10/22 11:12:57;;;;;;;;;;;19.70;62.80;;;;;;5075298;28;20383;-62
2022/10/22 11:15:27;;;;;;;;;;;19.70;62.60;;;;;;5075109;28;19922;-62
2022/10/22 11:17:54;;;;;;;;;;;19.70;62.70;;;;;;5075520;28;19930;-62
2022/10/22 11:20:21;;;;;;;;;;;19.70;62.80;;;;;;5075077;28;19915;-62
2022/10/22 11:22:47;;;;;;;;;;;19.70;62.40;;;;;;5093135;28;19908;-62
2022/10/22 11:25:16;;;;;;;;;;;19.70;62.60;;;;;;5074346;28;20428;-62
2022/10/22 11:27:48;;;;;;;;;;;19.70;62.70;;;;;;5093082;28;19908;-62
2022/10/22 11:30:18;;;;;;;;;;;19.70;62.70;;;;;;5074777;28;20382;-62
2022/10/22 11:33:04;;;;;;;;;;;19.80;63.50;;;;;;5093209;28;20367;-62
2022/10/22 11:35:30;;;;;;;;;;;19.80;62.80;;;;;;5092165;28;20371;-62
2022/10/22 11:37:56;;;;;;;;;;;19.80;62.70;;;;;;5074984;28;19908;-62
2022/10/22 11:40:29;;;;;;;;;;;19.90;62.70;;;;;;5092060;28;19972;-62
2022/10/22 11:42:55;;;;;;;;;;;19.90;62.80;;;;;;5074872;28;19943;-62
2022/10/22 11:45:24;;;;;;;;;;;19.90;62.60;;;;;;5092653;28;19915;-62
2022/10/22 11:47:55;;;;;;;;;;;19.90;62.70;;;;;;5092796;28;19973;-62
2022/10/22 11:50:23;;;;;;;;;;;19.90;62.70;;;;;;5092661;28;19908;-62
2022/10/22 11:52:53;;;;;;;;;;;20.00;62.90;;;;;;5092865;28;19908;-62
2022/10/22 11:55:44;;;;;;;;;;;19.90;62.60;;;;;;5083194;28;19912;-62
2022/10/22 11:58:25;;;;;;;;;;;20.00;62.90;;;;;;5072927;28;19915;-62
2022/10/22 12:00:50;;;;;;;;;;;20.00;63.00;;;;;;5072397;28;19908;-62
2022/10/22 12:03:31;;;;;;;;;;;20.00;63.00;;;;;;5056793;28;19913;-62
2022/10/22 12:06:11;;;;;;;;;;;20.00;62.90;;;;;;5076138;28;19916;-62
2022/10/22 12:08:43;;;;;;;;;;;20.00;63.00;;;;;;5085127;28;19908;-62
2022/10/22 12:11:11;;;;;;;;;;;20.00;63.00;;;;;;5095776;28;19954;-62
2022/10/22 12:13:48;;;;;;;;;;;20.00;63.10;;;;;;5096768;28;19920;-62
2022/10/22 12:16:14;;;;;;;;;;;20.00;63.00;;;;;;5096414;28;19927;-62
2022/10/22 12:18:39;;;;;;;;;;;20.10;63.10;;;;;;5078455;28;19908;-62
2022/10/22 12:21:05;;;;;;;;;;;20.10;63.10;;;;;;5096275;28;19908;-62
2022/10/22 12:23:31;;;;;;;;;;;20.10;63.10;;;;;;5096460;28;20333;-62
2022/10/22 12:25:57;;;;;;;;;;;20.10;63.10;;;;;;5077502;28;20345;-62
2022/10/22 12:28:22;;;;;;;;;;;20.10;63.10;;;;;;5078171;28;19916;-62
2022/10/22 12:30:48;;;;;;;;;;;20.00;63.00;;;;;;5096576;28;20383;-62
2022/10/22 12:33:17;;;;;;;;;;;20.00;63.20;;;;;;5089572;28;19913;-62
2022/10/22 12:35:43;;;;;;;;;;;20.00;63.50;;;;;;5075711;28;20022;-62
2022/10/22 12:38:12;;;;;;;;;;;19.90;63.50;;;;;;5080553;28;19961;-62
2022/10/22 12:40:38;;;;;;;;;;;19.80;63.50;;;;;;5076936;28;19909;-62
2022/10/22 12:43:06;;;;;;;;;;;19.80;63.80;;;;;;5096264;28;20333;-62
2022/10/22 12:45:32;;;;;;;;;;;19.70;63.90;;;;;;5095768;28;19915;-62
2022/10/22 12:47:58;;;;;;;;;;;19.70;64.00;;;;;;5096021;28;19987;-62
2022/10/22 12:50:42;;;;;;;;;;;19.70;64.10;;;;;;5095642;28;20510;-62
2022/10/22 12:53:14;;;;;;;;;;;19.70;64.20;;;;;;5096108;28;19916;-62
2022/10/22 12:55:40;;;;;;;;;;;19.70;64.40;;;;;;5094985;28;19912;-62
2022/10/22 12:58:06;;;;;;;;;;;19.60;64.40;;;;;;5096047;28;20366;-62
2022/10/22 13:00:32;;;;;;;;;;;19.60;64.60;;;;;;5095755;28;19909;-63
2022/10/22 13:02:58;;;;;;;;;;;19.60;64.70;;;;;;5095819;28;19912;-62
2022/10/22 13:05:29;;;;;;;;;;;19.70;64.80;;;;;;5077152;28;19915;-62
2022/10/22 13:08:14;;;;;;;;;;;19.60;64.60;;;;;;5077300;28;19924;-62
2022/10/22 13:10:40;;;;;;;;;;;19.60;64.50;;;;;;5093865;28;19915;-62
2022/10/22 13:13:05;;;;;;;;;;;19.60;64.50;;;;;;5095522;28;19915;-62
2022/10/22 13:15:32;;;;;;;;;;;19.60;64.60;;;;;;5075826;28;20396;-62
2022/10/22 13:18:03;;;;;;;;;;;19.60;64.50;;;;;;5095603;28;19908;-62
2022/10/22 13:20:29;;;;;;;;;;;19.60;64.60;;;;;;5095369;28;19908;-62
2022/10/22 13:22:58;;;;;;;;;;;19.60;64.90;;;;;;5084878;28;20427;-62
2022/10/22 13:25:25;;;;;;;;;;;19.60;64.70;;;;;;5073974;28;19912;-62
2022/10/22 13:27:52;;;;;;;;;;;19.60;64.70;;;;;;5075010;28;19954;-63
2022/10/22 13:30:17;;;;;;;;;;;19.60;64.70;;;;;;5056682;28;19915;-62
2022/10/22 13:32:47;;;;;;;;;;;19.70;64.80;;;;;;5074790;28;19912;-62
2022/10/22 13:35:12;;;;;;;;;;;19.70;64.80;;;;;;5056552;28;20449;-62
2022/10/22 13:37:38;;;;;;;;;;;19.60;64.80;;;;;;5057186;28;19913;-62
2022/10/22 13:40:09;;;;;;;;;;;19.60;64.80;;;;;;5093940;28;19923;-62
2022/10/22 13:42:35;;;;;;;;;;;19.70;65.00;;;;;;5094705;28;19957;-62
2022/10/22 13:45:00;;;;;;;;;;;19.70;64.90;;;;;;5094629;28;20372;-62
2022/10/22 13:47:27;;;;;;;;;;;19.70;64.90;;;;;;5094785;28;19958;-62
2022/10/22 13:49:53;;;;;;;;;;;19.70;64.90;;;;;;5076384;28;19915;-62
2022/10/22 13:52:22;;;;;;;;;;;19.70;65.00;;;;;;5076556;28;20351;-62
2022/10/22 13:54:48;;;;;;;;;;;19.80;65.00;;;;;;5071025;28;19916;-62
2022/10/22 13:57:13;;;;;;;;;;;19.80;64.90;;;;;;5074228;28;19916;-62
2022/10/22 13:59:39;;;;;;;;;;;19.80;64.90;;;;;;5074064;28;19908;-62
2022/10/22 14:02:08;;;;;;;;;;;19.80;64.80;;;;;;5074545;28;19908;-63
2022/10/22 14:04:33;;;;;;;;;;;19.70;64.70;;;;;;5056060;28;19909;-63
2022/10/22 14:06:59;;;;;;;;;;;19.70;64.60;;;;;;5073961;28;20399;-62
2022/10/22 14:09:25;;;;;;;;;;;19.70;64.70;;;;;;5088285;28;19908;-62
2022/10/22 14:11:50;;;;;;;;;;;19.80;64.80;;;;;;5094408;28;19908;-62
2022/10/22 14:14:17;;;;;;;;;;;19.70;64.80;;;;;;5094200;28;20014;-62
2022/10/22 14:16:43;;;;;;;;;;;19.70;64.90;;;;;;5094464;28;20315;-62
2022/10/22 14:19:09;;;;;;;;;;;19.70;64.90;;;;;;5094025;28;20012;-62